Burlington, NJ (08016)

1:43 PM EST on February 10, 2016 (GMT -0500)
The Hutte | | Change Station
CLOSE
Current Station
Personal Weather Station
Location: Burlington, NJ
Elevation: 28 ft
Nearby Weather Stations

Elev 28 ft 40.08 °N, 74.82 °W | Updated 2 seconds ago

Overcast
Overcast
35.0 °F
Feels Like 29 °F
N
7.0
Wind Variable Wind from WNW
Gusts 10.0 mph

Today
High -- | Low -- °F
--% Chance of Precip.
Yesterday
High -- | Low -- °F
Precip. -- in
Pressure 29.70 in
Visibility 10.0 miles
Clouds Overcast 4100 ft
Windchill 29 °F
Dew Point 24 °F
Humidity 63%
Rainfall 0.07 in
Snow Depth Not available.
6:58 AM 5:28 PM
Waxing Crescent, 6% visible
METAR KVAY 101754Z AUTO 27013G21KT 10SM OVC041 01/M07 A2969 RMK AO2 SLP055 60001 T00111067 10017 21011 56005
Pressure 29.70 in
Visibility 10.0 miles
Clouds Overcast 4100 ft
Windchill 29 °F
Dew Point 24 °F
Humidity 63%
Rainfall 0.07 in
Snow Depth Not available.
6:58 AM 5:28 PM
Waxing Crescent, 6% visible
METAR KVAY 101754Z AUTO 27013G21KT 10SM OVC041 01/M07 A2969 RMK AO2 SLP055 60001 T00111067 10017 21011 56005

10-Day Weather Forecast

Almanac

Astronomy

Feb. 10, 2016 Rise Set
Actual Time
Civil Twilight
Nautical Twilight
Astronomical Twilight
Moon
Length of Visible Light
Length of Day
Tomorrow will be .
, % of the Moon is Illuminated

Today's Extremes

State Highs State Lows

Community

WunderPhotos

Upload Photos

1,891,915 photos uploaded!

WunderBlog® & News

Nearby

Air Quality

  Air Quality AQ Index Pollutant
Not available.

Snow Depth

Station Depth Elevation

Earthquake Activity

City Distance Mag. Time & Date
Minimum magnitude displayed is 2.5.

Coastal Water Temperatures

Place Temperature

Stations

Nearby Weather Stations

Station Location Temp. Windchill Dew Point Humidity Wind Precip. Elev Updated Type
                   

Watches & Warnings

There are currently no watches in effect.